sensor_id;sensor_type;location;lat;lon;timestamp;P1;durP1;ratioP1;P2;durP2;ratioP2
66626;SDS011;53498;50.422;14.912;2022-11-15T00:00:24;50.88;;;28.42;;
66626;SDS011;53498;50.422;14.912;2022-11-15T00:03:03;46.33;;;24.25;;
66626;SDS011;53498;50.422;14.912;2022-11-15T00:05:28;43.92;;;24.38;;
66626;SDS011;53498;50.422;14.912;2022-11-15T00:07:54;46.42;;;25.48;;
66626;SDS011;53498;50.422;14.912;2022-11-15T00:10:19;42.50;;;23.17;;
66626;SDS011;53498;50.422;14.912;2022-11-15T00:12:45;41.17;;;22.58;;
66626;SDS011;53498;50.422;14.912;2022-11-15T00:15:11;44.85;;;24.80;;
66626;SDS011;53498;50.422;14.912;2022-11-15T00:17:36;45.88;;;23.88;;
66626;SDS011;53498;50.422;14.912;2022-11-15T00:20:02;43.42;;;23.13;;
66626;SDS011;53498;50.422;14.912;2022-11-15T00:22:31;41.90;;;21.70;;
66626;SDS011;53498;50.422;14.912;2022-11-15T00:24:58;43.00;;;23.05;;
66626;SDS011;53498;50.422;14.912;2022-11-15T00:27:23;36.83;;;21.02;;
66626;SDS011;53498;50.422;14.912;2022-11-15T00:29:49;40.40;;;21.50;;
66626;SDS011;53498;50.422;14.912;2022-11-15T00:32:15;37.72;;;21.40;;
66626;SDS011;53498;50.422;14.912;2022-11-15T00:34:40;38.22;;;21.45;;
66626;SDS011;53498;50.422;14.912;2022-11-15T00:37:06;39.95;;;22.55;;
66626;SDS011;53498;50.422;14.912;2022-11-15T00:39:32;41.63;;;23.17;;
66626;SDS011;53498;50.422;14.912;2022-11-15T00:41:57;43.55;;;21.98;;
66626;SDS011;53498;50.422;14.912;2022-11-15T00:44:23;37.45;;;22.67;;
66626;SDS011;53498;50.422;14.912;2022-11-15T00:46:48;45.05;;;22.90;;
66626;SDS011;53498;50.422;14.912;2022-11-15T00:49:14;43.17;;;23.30;;
66626;SDS011;53498;50.422;14.912;2022-11-15T00:51:39;35.08;;;20.88;;
66626;SDS011;53498;50.422;14.912;2022-11-15T00:54:05;36.90;;;20.88;;
66626;SDS011;53498;50.422;14.912;2022-11-15T00:56:31;42.47;;;22.08;;
66626;SDS011;53498;50.422;14.912;2022-11-15T00:58:56;43.05;;;21.75;;
66626;SDS011;53498;50.422;14.912;2022-11-15T01:01:22;40.58;;;21.83;;
66626;SDS011;53498;50.422;14.912;2022-11-15T01:03:47;37.80;;;21.13;;
66626;SDS011;53498;50.422;14.912;2022-11-15T01:06:13;38.70;;;21.95;;
66626;SDS011;53498;50.422;14.912;2022-11-15T01:08:39;44.33;;;21.67;;
66626;SDS011;53498;50.422;14.912;2022-11-15T01:11:06;45.05;;;24.02;;
66626;SDS011;53498;50.422;14.912;2022-11-15T01:13:34;43.72;;;22.00;;
66626;SDS011;53498;50.422;14.912;2022-11-15T01:16:13;38.30;;;21.58;;
66626;SDS011;53498;50.422;14.912;2022-11-15T01:18:42;35.75;;;20.42;;
66626;SDS011;53498;50.422;14.912;2022-11-15T01:21:09;40.20;;;22.20;;
66626;SDS011;53498;50.422;14.912;2022-11-15T01:23:38;42.10;;;21.15;;
66626;SDS011;53498;50.422;14.912;2022-11-15T01:26:04;35.00;;;21.48;;
66626;SDS011;53498;50.422;14.912;2022-11-15T01:28:32;37.38;;;20.83;;
66626;SDS011;53498;50.422;14.912;2022-11-15T01:30:59;38.85;;;19.50;;
66626;SDS011;53498;50.422;14.912;2022-11-15T01:33:30;45.90;;;21.60;;
66626;SDS011;53498;50.422;14.912;2022-11-15T01:35:56;38.38;;;21.52;;
66626;SDS011;53498;50.422;14.912;2022-11-15T01:38:22;38.95;;;20.00;;
66626;SDS011;53498;50.422;14.912;2022-11-15T01:40:48;43.38;;;22.15;;
66626;SDS011;53498;50.422;14.912;2022-11-15T01:43:25;38.75;;;20.75;;
66626;SDS011;53498;50.422;14.912;2022-11-15T01:49:21;38.03;;;20.55;;
66626;SDS011;53498;50.422;14.912;2022-11-15T01:51:48;38.05;;;19.55;;
66626;SDS011;53498;50.422;14.912;2022-11-15T01:54:15;40.08;;;20.23;;
66626;SDS011;53498;50.422;14.912;2022-11-15T01:56:47;38.05;;;21.13;;
66626;SDS011;53498;50.422;14.912;2022-11-15T01:59:16;39.80;;;20.38;;
66626;SDS011;53498;50.422;14.912;2022-11-15T02:01:41;39.88;;;21.45;;
66626;SDS011;53498;50.422;14.912;2022-11-15T02:04:12;37.38;;;20.55;;
66626;SDS011;53498;50.422;14.912;2022-11-15T02:06:41;44.97;;;21.52;;
66626;SDS011;53498;50.422;14.912;2022-11-15T02:09:07;43.28;;;23.77;;
66626;SDS011;53498;50.422;14.912;2022-11-15T02:11:33;42.13;;;22.10;;
66626;SDS011;53498;50.422;14.912;2022-11-15T02:13:59;41.97;;;20.98;;
66626;SDS011;53498;50.422;14.912;2022-11-15T02:16:33;42.70;;;24.00;;
66626;SDS011;53498;50.422;14.912;2022-11-15T02:19:03;44.33;;;23.25;;
66626;SDS011;53498;50.422;14.912;2022-11-15T02:32:54;39.10;;;19.85;;
66626;SDS011;53498;50.422;14.912;2022-11-15T02:35:28;34.53;;;19.77;;
66626;SDS011;53498;50.422;14.912;2022-11-15T02:41:16;36.08;;;19.33;;
66626;SDS011;53498;50.422;14.912;2022-11-15T02:43:49;35.00;;;19.58;;
66626;SDS011;53498;50.422;14.912;2022-11-15T02:49:33;38.17;;;20.67;;
66626;SDS011;53498;50.422;14.912;2022-11-15T02:52:00;50.55;;;24.33;;
66626;SDS011;53498;50.422;14.912;2022-11-15T02:54:30;39.00;;;19.60;;
66626;SDS011;53498;50.422;14.912;2022-11-15T02:57:01;41.63;;;21.73;;
66626;SDS011;53498;50.422;14.912;2022-11-15T02:59:43;36.80;;;20.25;;
66626;SDS011;53498;50.422;14.912;2022-11-15T03:02:39;37.95;;;20.98;;
66626;SDS011;53498;50.422;14.912;2022-11-15T03:05:30;40.58;;;21.10;;
66626;SDS011;53498;50.422;14.912;2022-11-15T03:08:06;43.90;;;24.98;;
66626;SDS011;53498;50.422;14.912;2022-11-15T03:10:42;42.40;;;23.08;;
66626;SDS011;53498;50.422;14.912;2022-11-15T03:15:43;42.83;;;23.55;;
66626;SDS011;53498;50.422;14.912;2022-11-15T03:18:19;37.03;;;20.05;;
66626;SDS011;53498;50.422;14.912;2022-11-15T03:20:50;41.80;;;23.67;;
66626;SDS011;53498;50.422;14.912;2022-11-15T03:23:16;42.45;;;23.17;;
66626;SDS011;53498;50.422;14.912;2022-11-15T03:25:47;40.75;;;20.27;;
66626;SDS011;53498;50.422;14.912;2022-11-15T03:28:20;38.63;;;21.67;;
66626;SDS011;53498;50.422;14.912;2022-11-15T03:31:10;40.10;;;21.70;;
66626;SDS011;53498;50.422;14.912;2022-11-15T03:33:57;38.97;;;20.40;;
66626;SDS011;53498;50.422;14.912;2022-11-15T03:36:28;34.78;;;19.80;;
66626;SDS011;53498;50.422;14.912;2022-11-15T03:38:58;36.92;;;18.00;;
66626;SDS011;53498;50.422;14.912;2022-11-15T03:44:04;38.10;;;21.83;;
66626;SDS011;53498;50.422;14.912;2022-11-15T03:46:38;34.03;;;18.70;;
66626;SDS011;53498;50.422;14.912;2022-11-15T03:49:14;35.67;;;18.98;;
66626;SDS011;53498;50.422;14.912;2022-11-15T03:51:48;34.38;;;18.42;;
66626;SDS011;53498;50.422;14.912;2022-11-15T03:54:14;34.30;;;19.35;;
66626;SDS011;53498;50.422;14.912;2022-11-15T03:56:39;40.28;;;20.33;;
66626;SDS011;53498;50.422;14.912;2022-11-15T03:59:05;46.58;;;22.33;;
66626;SDS011;53498;50.422;14.912;2022-11-15T04:01:30;39.45;;;20.15;;
66626;SDS011;53498;50.422;14.912;2022-11-15T04:03:56;40.38;;;21.75;;
66626;SDS011;53498;50.422;14.912;2022-11-15T04:06:21;46.88;;;23.45;;
66626;SDS011;53498;50.422;14.912;2022-11-15T04:08:47;38.45;;;20.15;;
66626;SDS011;53498;50.422;14.912;2022-11-15T04:11:12;35.60;;;19.33;;
66626;SDS011;53498;50.422;14.912;2022-11-15T04:13:38;39.42;;;20.88;;
66626;SDS011;53498;50.422;14.912;2022-11-15T04:16:03;38.55;;;20.00;;
66626;SDS011;53498;50.422;14.912;2022-11-15T04:18:29;37.33;;;19.70;;
66626;SDS011;53498;50.422;14.912;2022-11-15T04:20:54;36.13;;;20.27;;
66626;SDS011;53498;50.422;14.912;2022-11-15T04:23:39;43.65;;;22.35;;
66626;SDS011;53498;50.422;14.912;2022-11-15T04:26:33;37.35;;;18.20;;
66626;SDS011;53498;50.422;14.912;2022-11-15T04:28:59;31.90;;;19.83;;
66626;SDS011;53498;50.422;14.912;2022-11-15T04:31:43;41.75;;;20.13;;
66626;SDS011;53498;50.422;14.912;2022-11-15T04:34:08;34.15;;;18.73;;
66626;SDS011;53498;50.422;14.912;2022-11-15T04:36:34;39.60;;;20.15;;
66626;SDS011;53498;50.422;14.912;2022-11-15T04:39:18;42.10;;;22.48;;
66626;SDS011;53498;50.422;14.912;2022-11-15T04:41:43;46.72;;;21.67;;
66626;SDS011;53498;50.422;14.912;2022-11-15T04:44:09;36.90;;;20.17;;
66626;SDS011;53498;50.422;14.912;2022-11-15T04:46:35;36.88;;;19.80;;
66626;SDS011;53498;50.422;14.912;2022-11-15T04:49:06;35.72;;;19.73;;
66626;SDS011;53498;50.422;14.912;2022-11-15T04:51:32;36.15;;;19.02;;
66626;SDS011;53498;50.422;14.912;2022-11-15T04:53:57;41.55;;;19.90;;
66626;SDS011;53498;50.422;14.912;2022-11-15T04:56:26;37.67;;;18.80;;
66626;SDS011;53498;50.422;14.912;2022-11-15T04:58:51;36.80;;;20.00;;
66626;SDS011;53498;50.422;14.912;2022-11-15T05:01:17;40.15;;;20.88;;
66626;SDS011;53498;50.422;14.912;2022-11-15T05:03:43;31.67;;;18.35;;
66626;SDS011;53498;50.422;14.912;2022-11-15T05:06:28;34.83;;;18.55;;
66626;SDS011;53498;50.422;14.912;2022-11-15T05:08:54;41.47;;;19.58;;
66626;SDS011;53498;50.422;14.912;2022-11-15T05:11:20;39.35;;;20.33;;
66626;SDS011;53498;50.422;14.912;2022-11-15T05:13:46;40.42;;;21.27;;
66626;SDS011;53498;50.422;14.912;2022-11-15T05:16:12;43.35;;;22.45;;
66626;SDS011;53498;50.422;14.912;2022-11-15T05:18:37;40.85;;;22.15;;
66626;SDS011;53498;50.422;14.912;2022-11-15T05:21:06;40.13;;;18.77;;
66626;SDS011;53498;50.422;14.912;2022-11-15T05:23:34;38.30;;;20.75;;
66626;SDS011;53498;50.422;14.912;2022-11-15T05:26:00;35.97;;;19.77;;
66626;SDS011;53498;50.422;14.912;2022-11-15T05:28:26;42.83;;;20.50;;
66626;SDS011;53498;50.422;14.912;2022-11-15T05:30:52;38.50;;;19.70;;
66626;SDS011;53498;50.422;14.912;2022-11-15T05:33:18;39.05;;;20.77;;
66626;SDS011;53498;50.422;14.912;2022-11-15T05:35:48;35.63;;;17.42;;
66626;SDS011;53498;50.422;14.912;2022-11-15T05:38:23;40.38;;;21.17;;
66626;SDS011;53498;50.422;14.912;2022-11-15T05:40:49;40.03;;;21.38;;
66626;SDS011;53498;50.422;14.912;2022-11-15T05:43:14;44.63;;;21.75;;
66626;SDS011;53498;50.422;14.912;2022-11-15T05:45:40;38.97;;;21.25;;
66626;SDS011;53498;50.422;14.912;2022-11-15T05:48:06;43.53;;;20.92;;
66626;SDS011;53498;50.422;14.912;2022-11-15T05:50:34;36.30;;;20.48;;
66626;SDS011;53498;50.422;14.912;2022-11-15T05:53:03;42.13;;;21.20;;
66626;SDS011;53498;50.422;14.912;2022-11-15T05:55:30;37.50;;;20.10;;
66626;SDS011;53498;50.422;14.912;2022-11-15T05:57:56;40.92;;;21.73;;
66626;SDS011;53498;50.422;14.912;2022-11-15T06:00:22;40.17;;;20.73;;
66626;SDS011;53498;50.422;14.912;2022-11-15T06:02:47;36.25;;;19.50;;
66626;SDS011;53498;50.422;14.912;2022-11-15T06:05:13;38.10;;;20.65;;
66626;SDS011;53498;50.422;14.912;2022-11-15T06:07:38;36.65;;;20.38;;
66626;SDS011;53498;50.422;14.912;2022-11-15T06:10:04;38.38;;;21.52;;
66626;SDS011;53498;50.422;14.912;2022-11-15T06:12:30;42.42;;;21.98;;
66626;SDS011;53498;50.422;14.912;2022-11-15T06:14:56;36.30;;;20.23;;
66626;SDS011;53498;50.422;14.912;2022-11-15T06:17:21;42.35;;;20.27;;
66626;SDS011;53498;50.422;14.912;2022-11-15T06:19:47;32.65;;;19.27;;
66626;SDS011;53498;50.422;14.912;2022-11-15T06:22:12;38.47;;;20.35;;
66626;SDS011;53498;50.422;14.912;2022-11-15T06:24:38;42.67;;;21.10;;
66626;SDS011;53498;50.422;14.912;2022-11-15T06:27:04;45.55;;;23.42;;
66626;SDS011;53498;50.422;14.912;2022-11-15T06:29:29;46.78;;;20.42;;
66626;SDS011;53498;50.422;14.912;2022-11-15T06:31:55;40.25;;;20.85;;
66626;SDS011;53498;50.422;14.912;2022-11-15T06:34:20;47.35;;;23.17;;
66626;SDS011;53498;50.422;14.912;2022-11-15T06:36:46;46.47;;;22.58;;
66626;SDS011;53498;50.422;14.912;2022-11-15T06:39:12;59.13;;;24.27;;
66626;SDS011;53498;50.422;14.912;2022-11-15T06:41:37;63.08;;;24.63;;
66626;SDS011;53498;50.422;14.912;2022-11-15T06:44:06;58.60;;;22.23;;
66626;SDS011;53498;50.422;14.912;2022-11-15T06:46:31;54.15;;;22.92;;
66626;SDS011;53498;50.422;14.912;2022-11-15T06:48:57;52.50;;;21.20;;
66626;SDS011;53498;50.422;14.912;2022-11-15T06:51:22;54.17;;;22.33;;
66626;SDS011;53498;50.422;14.912;2022-11-15T06:53:48;55.15;;;24.33;;
66626;SDS011;53498;50.422;14.912;2022-11-15T06:56:13;58.60;;;22.83;;
66626;SDS011;53498;50.422;14.912;2022-11-15T06:58:39;53.67;;;24.40;;
66626;SDS011;53498;50.422;14.912;2022-11-15T07:01:06;52.42;;;23.58;;
66626;SDS011;53498;50.422;14.912;2022-11-15T07:03:34;55.90;;;21.33;;
66626;SDS011;53498;50.422;14.912;2022-11-15T07:06:01;61.88;;;25.88;;
66626;SDS011;53498;50.422;14.912;2022-11-15T07:08:28;54.80;;;24.02;;
66626;SDS011;53498;50.422;14.912;2022-11-15T07:10:54;57.17;;;23.33;;
66626;SDS011;53498;50.422;14.912;2022-11-15T07:13:19;53.85;;;23.50;;
66626;SDS011;53498;50.422;14.912;2022-11-15T07:15:48;56.95;;;23.90;;
66626;SDS011;53498;50.422;14.912;2022-11-15T07:18:14;52.35;;;22.30;;
66626;SDS011;53498;50.422;14.912;2022-11-15T07:20:39;49.35;;;22.23;;
66626;SDS011;53498;50.422;14.912;2022-11-15T07:23:05;55.20;;;23.65;;
66626;SDS011;53498;50.422;14.912;2022-11-15T07:25:31;63.72;;;24.65;;
66626;SDS011;53498;50.422;14.912;2022-11-15T07:27:57;60.58;;;22.25;;
66626;SDS011;53498;50.422;14.912;2022-11-15T07:30:24;60.00;;;22.90;;
66626;SDS011;53498;50.422;14.912;2022-11-15T07:32:57;54.15;;;21.83;;
66626;SDS011;53498;50.422;14.912;2022-11-15T07:35:28;55.40;;;24.42;;
66626;SDS011;53498;50.422;14.912;2022-11-15T07:37:55;51.78;;;20.77;;
66626;SDS011;53498;50.422;14.912;2022-11-15T07:40:22;52.53;;;22.08;;
66626;SDS011;53498;50.422;14.912;2022-11-15T07:42:49;53.60;;;22.45;;
66626;SDS011;53498;50.422;14.912;2022-11-15T07:45:24;59.80;;;23.48;;
66626;SDS011;53498;50.422;14.912;2022-11-15T07:47:51;47.67;;;20.00;;
66626;SDS011;53498;50.422;14.912;2022-11-15T07:50:17;58.65;;;21.63;;
66626;SDS011;53498;50.422;14.912;2022-11-15T07:52:44;64.00;;;23.42;;
66626;SDS011;53498;50.422;14.912;2022-11-15T07:55:10;60.90;;;23.13;;
66626;SDS011;53498;50.422;14.912;2022-11-15T07:57:36;57.35;;;22.13;;
66626;SDS011;53498;50.422;14.912;2022-11-15T08:00:02;56.40;;;22.33;;
66626;SDS011;53498;50.422;14.912;2022-11-15T08:02:29;60.80;;;21.13;;
66626;SDS011;53498;50.422;14.912;2022-11-15T08:05:00;69.30;;;26.05;;
66626;SDS011;53498;50.422;14.912;2022-11-15T08:07:28;57.03;;;24.17;;
66626;SDS011;53498;50.422;14.912;2022-11-15T08:09:55;60.17;;;22.00;;
66626;SDS011;53498;50.422;14.912;2022-11-15T08:12:21;61.63;;;21.05;;
66626;SDS011;53498;50.422;14.912;2022-11-15T08:14:47;60.42;;;22.65;;
66626;SDS011;53498;50.422;14.912;2022-11-15T08:17:13;54.17;;;21.83;;
66626;SDS011;53498;50.422;14.912;2022-11-15T08:19:39;49.88;;;19.48;;
66626;SDS011;53498;50.422;14.912;2022-11-15T08:22:04;58.10;;;21.70;;
66626;SDS011;53498;50.422;14.912;2022-11-15T08:24:30;58.05;;;22.70;;
66626;SDS011;53498;50.422;14.912;2022-11-15T08:26:56;49.10;;;16.77;;
66626;SDS011;53498;50.422;14.912;2022-11-15T08:29:21;42.33;;;15.27;;
66626;SDS011;53498;50.422;14.912;2022-11-15T08:31:47;57.47;;;19.83;;
66626;SDS011;53498;50.422;14.912;2022-11-15T08:34:12;52.97;;;21.58;;
66626;SDS011;53498;50.422;14.912;2022-11-15T08:36:38;66.18;;;20.10;;
66626;SDS011;53498;50.422;14.912;2022-11-15T08:39:03;59.30;;;22.40;;
66626;SDS011;53498;50.422;14.912;2022-11-15T08:41:31;55.80;;;21.40;;
66626;SDS011;53498;50.422;14.912;2022-11-15T08:43:58;50.53;;;20.85;;
66626;SDS011;53498;50.422;14.912;2022-11-15T08:46:24;52.85;;;21.02;;
66626;SDS011;53498;50.422;14.912;2022-11-15T08:48:50;57.97;;;20.08;;
66626;SDS011;53498;50.422;14.912;2022-11-15T08:51:25;55.13;;;21.45;;
66626;SDS011;53498;50.422;14.912;2022-11-15T08:53:51;57.85;;;19.80;;
66626;SDS011;53498;50.422;14.912;2022-11-15T08:56:22;53.15;;;19.45;;
66626;SDS011;53498;50.422;14.912;2022-11-15T08:58:48;49.35;;;19.08;;
66626;SDS011;53498;50.422;14.912;2022-11-15T09:01:17;53.38;;;21.58;;
66626;SDS011;53498;50.422;14.912;2022-11-15T09:03:43;57.20;;;20.35;;
66626;SDS011;53498;50.422;14.912;2022-11-15T09:06:09;49.90;;;19.92;;
66626;SDS011;53498;50.422;14.912;2022-11-15T09:08:35;51.80;;;19.33;;
66626;SDS011;53498;50.422;14.912;2022-11-15T09:11:04;57.10;;;19.63;;
66626;SDS011;53498;50.422;14.912;2022-11-15T09:13:31;53.20;;;21.02;;
66626;SDS011;53498;50.422;14.912;2022-11-15T09:15:59;54.70;;;19.95;;
66626;SDS011;53498;50.422;14.912;2022-11-15T09:18:26;51.22;;;19.50;;
66626;SDS011;53498;50.422;14.912;2022-11-15T09:20:58;55.00;;;20.20;;
66626;SDS011;53498;50.422;14.912;2022-11-15T09:23:25;47.55;;;18.05;;
66626;SDS011;53498;50.422;14.912;2022-11-15T09:25:52;62.00;;;20.13;;
66626;SDS011;53498;50.422;14.912;2022-11-15T09:28:18;55.05;;;20.42;;
66626;SDS011;53498;50.422;14.912;2022-11-15T09:30:44;50.65;;;21.15;;
66626;SDS011;53498;50.422;14.912;2022-11-15T09:33:10;46.80;;;18.85;;
66626;SDS011;53498;50.422;14.912;2022-11-15T09:35:37;57.22;;;20.48;;
66626;SDS011;53498;50.422;14.912;2022-11-15T09:38:03;48.47;;;18.70;;
66626;SDS011;53498;50.422;14.912;2022-11-15T09:40:31;48.60;;;19.70;;
66626;SDS011;53498;50.422;14.912;2022-11-15T09:43:16;49.85;;;19.90;;
66626;SDS011;53498;50.422;14.912;2022-11-15T09:46:07;49.58;;;19.70;;
66626;SDS011;53498;50.422;14.912;2022-11-15T09:48:51;42.67;;;17.10;;
66626;SDS011;53498;50.422;14.912;2022-11-15T09:51:33;47.53;;;18.05;;
66626;SDS011;53498;50.422;14.912;2022-11-15T09:56:46;47.28;;;17.02;;
66626;SDS011;53498;50.422;14.912;2022-11-15T10:05:09;44.95;;;18.60;;
66626;SDS011;53498;50.422;14.912;2022-11-15T10:08:15;51.65;;;20.15;;
66626;SDS011;53498;50.422;14.912;2022-11-15T10:10:51;42.10;;;17.55;;
66626;SDS011;53498;50.422;14.912;2022-11-15T10:13:35;46.53;;;18.08;;
66626;SDS011;53498;50.422;14.912;2022-11-15T10:24:34;45.30;;;18.40;;
66626;SDS011;53498;50.422;14.912;2022-11-15T10:27:06;39.90;;;17.42;;
66626;SDS011;53498;50.422;14.912;2022-11-15T10:29:44;44.58;;;18.00;;
66626;SDS011;53498;50.422;14.912;2022-11-15T10:32:20;44.63;;;18.02;;
66626;SDS011;53498;50.422;14.912;2022-11-15T10:34:47;43.20;;;17.52;;
66626;SDS011;53498;50.422;14.912;2022-11-15T10:37:27;33.38;;;15.40;;
66626;SDS011;53498;50.422;14.912;2022-11-15T10:40:05;36.20;;;16.23;;
66626;SDS011;53498;50.422;14.912;2022-11-15T10:42:39;34.00;;;15.75;;
66626;SDS011;53498;50.422;14.912;2022-11-15T10:45:15;36.85;;;16.02;;
66626;SDS011;53498;50.422;14.912;2022-11-15T10:47:52;34.88;;;14.35;;
66626;SDS011;53498;50.422;14.912;2022-11-15T10:50:28;40.88;;;15.35;;
66626;SDS011;53498;50.422;14.912;2022-11-15T10:52:59;36.22;;;15.68;;
66626;SDS011;53498;50.422;14.912;2022-11-15T10:55:29;43.72;;;16.27;;
66626;SDS011;53498;50.422;14.912;2022-11-15T10:58:04;34.15;;;14.35;;
66626;SDS011;53498;50.422;14.912;2022-11-15T11:00:44;32.05;;;15.05;;
66626;SDS011;53498;50.422;14.912;2022-11-15T11:06:03;38.38;;;18.20;;
66626;SDS011;53498;50.422;14.912;2022-11-15T11:08:31;35.05;;;16.33;;
66626;SDS011;53498;50.422;14.912;2022-11-15T11:10:58;39.30;;;16.42;;
66626;SDS011;53498;50.422;14.912;2022-11-15T11:13:26;33.85;;;15.05;;
66626;SDS011;53498;50.422;14.912;2022-11-15T11:16:01;37.13;;;16.02;;
66626;SDS011;53498;50.422;14.912;2022-11-15T11:21:46;35.88;;;16.52;;
66626;SDS011;53498;50.422;14.912;2022-11-15T11:24:32;32.55;;;15.05;;
66626;SDS011;53498;50.422;14.912;2022-11-15T11:27:16;38.20;;;16.05;;
66626;SDS011;53498;50.422;14.912;2022-11-15T11:29:58;39.28;;;16.30;;
66626;SDS011;53498;50.422;14.912;2022-11-15T11:32:42;38.28;;;16.20;;
66626;SDS011;53498;50.422;14.912;2022-11-15T11:35:29;33.97;;;14.90;;
66626;SDS011;53498;50.422;14.912;2022-11-15T11:38:06;45.70;;;17.50;;
66626;SDS011;53498;50.422;14.912;2022-11-15T11:40:57;44.83;;;16.10;;
66626;SDS011;53498;50.422;14.912;2022-11-15T11:51:50;37.40;;;16.52;;
66626;SDS011;53498;50.422;14.912;2022-11-15T11:57:06;36.88;;;17.50;;
66626;SDS011;53498;50.422;14.912;2022-11-15T11:59:48;40.03;;;16.90;;
66626;SDS011;53498;50.422;14.912;2022-11-15T12:02:28;41.75;;;17.63;;
66626;SDS011;53498;50.422;14.912;2022-11-15T12:05:09;45.08;;;19.70;;
66626;SDS011;53498;50.422;14.912;2022-11-15T12:07:42;42.90;;;17.08;;
66626;SDS011;53498;50.422;14.912;2022-11-15T12:10:32;40.90;;;18.60;;
66626;SDS011;53498;50.422;14.912;2022-11-15T12:13:11;44.08;;;17.42;;
66626;SDS011;53498;50.422;14.912;2022-11-15T12:15:43;44.17;;;17.85;;
66626;SDS011;53498;50.422;14.912;2022-11-15T12:18:15;49.72;;;19.27;;
66626;SDS011;53498;50.422;14.912;2022-11-15T12:20:58;51.97;;;19.65;;
66626;SDS011;53498;50.422;14.912;2022-11-15T12:23:30;51.10;;;17.23;;
66626;SDS011;53498;50.422;14.912;2022-11-15T12:26:08;51.17;;;18.63;;
66626;SDS011;53498;50.422;14.912;2022-11-15T12:28:43;47.78;;;16.98;;
66626;SDS011;53498;50.422;14.912;2022-11-15T12:34:15;50.20;;;18.20;;
66626;SDS011;53498;50.422;14.912;2022-11-15T12:36:56;46.58;;;19.38;;
66626;SDS011;53498;50.422;14.912;2022-11-15T12:47:23;57.38;;;19.42;;
66626;SDS011;53498;50.422;14.912;2022-11-15T12:49:50;55.45;;;20.15;;
66626;SDS011;53498;50.422;14.912;2022-11-15T12:52:17;61.60;;;21.33;;
66626;SDS011;53498;50.422;14.912;2022-11-15T12:54:50;59.97;;;21.13;;
66626;SDS011;53498;50.422;14.912;2022-11-15T13:04:49;49.58;;;21.90;;
66626;SDS011;53498;50.422;14.912;2022-11-15T13:20:57;55.05;;;20.90;;
66626;SDS011;53498;50.422;14.912;2022-11-15T13:23:24;71.82;;;21.95;;
66626;SDS011;53498;50.422;14.912;2022-11-15T13:28:32;66.07;;;22.58;;
66626;SDS011;53498;50.422;14.912;2022-11-15T13:34:13;72.05;;;25.38;;
66626;SDS011;53498;50.422;14.912;2022-11-15T13:37:02;66.70;;;23.55;;
66626;SDS011;53498;50.422;14.912;2022-11-15T13:39:31;67.43;;;23.85;;
66626;SDS011;53498;50.422;14.912;2022-11-15T13:41:59;61.40;;;19.92;;
66626;SDS011;53498;50.422;14.912;2022-11-15T13:44:27;64.50;;;25.40;;
66626;SDS011;53498;50.422;14.912;2022-11-15T13:49:52;55.45;;;21.10;;
66626;SDS011;53498;50.422;14.912;2022-11-15T13:52:18;62.63;;;22.25;;
66626;SDS011;53498;50.422;14.912;2022-11-15T13:55:08;55.75;;;20.25;;
66626;SDS011;53498;50.422;14.912;2022-11-15T13:57:48;49.13;;;20.20;;
66626;SDS011;53498;50.422;14.912;2022-11-15T14:00:35;58.25;;;22.25;;
66626;SDS011;53498;50.422;14.912;2022-11-15T14:05:32;49.13;;;19.45;;
66626;SDS011;53498;50.422;14.912;2022-11-15T14:10:28;55.63;;;19.55;;
66626;SDS011;53498;50.422;14.912;2022-11-15T14:12:58;53.45;;;20.75;;
66626;SDS011;53498;50.422;14.912;2022-11-15T14:15:35;51.90;;;20.30;;
66626;SDS011;53498;50.422;14.912;2022-11-15T14:18:02;48.45;;;21.15;;
66626;SDS011;53498;50.422;14.912;2022-11-15T14:20:30;58.65;;;21.95;;
66626;SDS011;53498;50.422;14.912;2022-11-15T14:23:18;47.42;;;20.17;;
66626;SDS011;53498;50.422;14.912;2022-11-15T14:25:52;51.38;;;21.05;;
66626;SDS011;53498;50.422;14.912;2022-11-15T14:30:44;49.67;;;19.75;;
66626;SDS011;53498;50.422;14.912;2022-11-15T14:33:34;59.85;;;23.08;;
66626;SDS011;53498;50.422;14.912;2022-11-15T14:36:11;55.80;;;21.50;;
66626;SDS011;53498;50.422;14.912;2022-11-15T14:38:45;55.13;;;20.65;;
66626;SDS011;53498;50.422;14.912;2022-11-15T14:41:22;49.03;;;21.73;;
66626;SDS011;53498;50.422;14.912;2022-11-15T14:43:49;51.28;;;21.27;;
66626;SDS011;53498;50.422;14.912;2022-11-15T14:46:16;60.95;;;22.50;;
66626;SDS011;53498;50.422;14.912;2022-11-15T14:48:42;61.70;;;25.00;;
66626;SDS011;53498;50.422;14.912;2022-11-15T14:51:18;62.63;;;23.08;;
66626;SDS011;53498;50.422;14.912;2022-11-15T14:53:44;56.78;;;23.17;;
66626;SDS011;53498;50.422;14.912;2022-11-15T14:56:11;49.45;;;19.77;;
66626;SDS011;53498;50.422;14.912;2022-11-15T14:58:37;59.20;;;22.77;;
66626;SDS011;53498;50.422;14.912;2022-11-15T15:01:13;55.50;;;23.90;;
66626;SDS011;53498;50.422;14.912;2022-11-15T15:03:44;57.78;;;22.05;;
66626;SDS011;53498;50.422;14.912;2022-11-15T15:06:10;56.50;;;23.17;;
66626;SDS011;53498;50.422;14.912;2022-11-15T15:08:38;56.40;;;22.30;;
66626;SDS011;53498;50.422;14.912;2022-11-15T15:11:08;59.72;;;22.40;;
66626;SDS011;53498;50.422;14.912;2022-11-15T15:13:38;62.08;;;23.10;;
66626;SDS011;53498;50.422;14.912;2022-11-15T15:16:04;61.78;;;23.80;;
66626;SDS011;53498;50.422;14.912;2022-11-15T15:18:30;60.15;;;24.08;;
66626;SDS011;53498;50.422;14.912;2022-11-15T15:20:56;63.60;;;23.45;;
66626;SDS011;53498;50.422;14.912;2022-11-15T15:23:27;59.95;;;23.55;;
66626;SDS011;53498;50.422;14.912;2022-11-15T15:25:57;60.13;;;25.48;;
66626;SDS011;53498;50.422;14.912;2022-11-15T15:28:23;51.03;;;21.83;;
66626;SDS011;53498;50.422;14.912;2022-11-15T15:30:49;58.75;;;24.38;;
66626;SDS011;53498;50.422;14.912;2022-11-15T15:33:15;58.10;;;23.73;;
66626;SDS011;53498;50.422;14.912;2022-11-15T15:35:41;59.25;;;24.27;;
66626;SDS011;53498;50.422;14.912;2022-11-15T15:38:09;57.58;;;24.13;;
66626;SDS011;53498;50.422;14.912;2022-11-15T15:40:37;65.43;;;24.73;;
66626;SDS011;53498;50.422;14.912;2022-11-15T15:43:02;60.45;;;24.30;;
66626;SDS011;53498;50.422;14.912;2022-11-15T15:45:28;61.85;;;25.27;;
66626;SDS011;53498;50.422;14.912;2022-11-15T15:47:55;59.53;;;25.33;;
66626;SDS011;53498;50.422;14.912;2022-11-15T15:52:49;55.30;;;21.60;;
66626;SDS011;53498;50.422;14.912;2022-11-15T15:55:16;54.20;;;21.20;;
66626;SDS011;53498;50.422;14.912;2022-11-15T15:57:43;48.65;;;21.45;;
66626;SDS011;53498;50.422;14.912;2022-11-15T16:00:11;54.80;;;22.40;;
66626;SDS011;53498;50.422;14.912;2022-11-15T16:02:38;54.67;;;22.42;;
66626;SDS011;53498;50.422;14.912;2022-11-15T16:05:05;43.58;;;20.33;;
66626;SDS011;53498;50.422;14.912;2022-11-15T16:07:31;47.55;;;20.65;;
66626;SDS011;53498;50.422;14.912;2022-11-15T16:09:57;51.90;;;21.85;;
66626;SDS011;53498;50.422;14.912;2022-11-15T16:12:29;57.50;;;24.70;;
66626;SDS011;53498;50.422;14.912;2022-11-15T16:14:58;59.15;;;22.80;;